createdAt,value
2019-05-22T00:00:52.640Z,89.82
2019-05-22T00:04:00.748Z,90.92
2019-05-22T00:07:08.203Z,90.71
2019-05-22T00:10:19.148Z,90.40
2019-05-22T00:13:31.014Z,90.00
2019-05-22T00:16:37.851Z,90.00
2019-05-22T00:19:44.864Z,90.40
2019-05-22T00:22:52.434Z,90.95
2019-05-22T00:25:57.602Z,90.31
2019-05-22T00:29:03.831Z,90.90
2019-05-22T00:32:10.045Z,90.82
2019-05-22T00:35:19.091Z,90.95
2019-05-22T00:38:25.320Z,91.32
2019-05-22T00:41:32.735Z,90.96
2019-05-22T00:44:38.197Z,90.62
2019-05-22T00:47:43.978Z,90.03
2019-05-22T00:51:00.951Z,89.58
2019-05-22T00:54:38.536Z,90.63
2019-05-22T00:57:50.066Z,90.00
2019-05-22T01:01:01.447Z,90.90
2019-05-22T01:04:10.163Z,91.74
2019-05-22T01:07:20.953Z,89.77
2019-05-22T01:10:29.257Z,90.04
2019-05-22T01:13:37.929Z,89.56
2019-05-22T01:16:43.502Z,90.32
2019-05-22T01:19:51.965Z,89.85
2019-05-22T01:22:59.898Z,90.45
2019-05-22T01:26:05.501Z,89.31
2019-05-22T01:29:11.471Z,89.77
2019-05-22T01:32:24.655Z,89.11
2019-05-22T01:35:35.916Z,88.54
2019-05-22T01:38:42.551Z,88.89
2019-05-22T01:41:51.109Z,88.73
2019-05-22T01:45:05.843Z,88.46
2019-05-22T01:48:08.836Z,89.29
2019-05-22T01:51:15.831Z,88.43
2019-05-22T01:54:21.942Z,88.75
2019-05-22T01:57:29.082Z,88.96
2019-05-22T02:00:36.217Z,89.09
2019-05-22T02:03:43.022Z,89.85
2019-05-22T02:06:48.694Z,89.25
2019-05-22T02:09:56.552Z,89.36
2019-05-22T02:13:05.635Z,90.22
2019-05-22T02:16:11.477Z,89.97
2019-05-22T02:19:18.357Z,89.56
2019-05-22T02:22:23.804Z,89.35
2019-05-22T02:25:32.270Z,89.81
2019-05-22T02:28:38.958Z,90.15
2019-05-22T02:31:44.531Z,90.31
2019-05-22T02:34:50.687Z,90.47
2019-05-22T02:37:56.191Z,90.84
2019-05-22T02:41:04.394Z,91.27
2019-05-22T02:44:10.061Z,91.36
2019-05-22T02:47:20.794Z,91.55
2019-05-22T02:50:24.647Z,90.55
2019-05-22T02:53:30.365Z,90.77
2019-05-22T02:56:36.179Z,91.12
2019-05-22T02:59:42.229Z,91.47
2019-05-22T03:02:53.399Z,91.61
2019-05-22T03:06:00.338Z,91.47
2019-05-22T03:09:24.486Z,91.75
2019-05-22T03:12:32.358Z,92.74
2019-05-22T03:15:37.564Z,92.48
2019-05-22T03:18:44.346Z,90.74
2019-05-22T03:21:49.579Z,90.24
2019-05-22T03:24:55.428Z,91.67
2019-05-22T03:28:02.288Z,91.94
2019-05-22T03:31:09.359Z,91.87
2019-05-22T03:34:14.535Z,89.93
2019-05-22T03:37:20.476Z,90.85
2019-05-22T03:40:28.584Z,91.12
2019-05-22T03:43:35.331Z,91.15
2019-05-22T03:46:46.251Z,91.45
2019-05-22T03:49:53.116Z,90.98
2019-05-22T03:53:01.521Z,90.64
2019-05-22T03:56:07.310Z,91.25
2019-05-22T03:59:12.834Z,90.51
2019-05-22T04:02:19.390Z,90.48
2019-05-22T04:05:25.145Z,90.81
2019-05-22T04:08:30.860Z,90.36
2019-05-22T04:11:39.058Z,90.29
2019-05-22T04:14:45.898Z,90.51
2019-05-22T04:17:51.170Z,91.67
2019-05-22T04:20:58.984Z,91.73
2019-05-22T04:24:04.151Z,91.30
2019-05-22T04:27:10.963Z,90.03
2019-05-22T04:30:17.848Z,89.61
2019-05-22T04:33:23.257Z,88.59
2019-05-22T04:36:29.327Z,89.80
2019-05-22T04:39:36.286Z,89.30
2019-05-22T04:42:41.463Z,89.78
2019-05-22T04:45:47.345Z,88.97
2019-05-22T04:48:53.918Z,88.11
2019-05-22T04:51:59.105Z,87.95
2019-05-22T04:55:04.899Z,87.61
2019-05-22T04:58:13.881Z,87.93
2019-05-22T05:01:21.127Z,88.09
2019-05-22T05:04:26.885Z,88.07
2019-05-22T05:07:32.541Z,87.97
2019-05-22T05:10:37.719Z,87.91
2019-05-22T05:13:42.837Z,87.69
2019-05-22T05:16:48.686Z,87.64
2019-05-22T05:19:53.813Z,87.75
2019-05-22T05:22:59.022Z,87.99
2019-05-22T05:26:07.345Z,87.74
2019-05-22T05:29:47.372Z,87.62
2019-05-22T05:32:52.640Z,87.40
2019-05-22T05:35:58.419Z,87.17
2019-05-22T05:39:07.112Z,86.58
2019-05-22T05:42:12.790Z,87.28
2019-05-22T05:45:18.522Z,87.45
2019-05-22T05:48:25.812Z,87.84
2019-05-22T05:51:35.925Z,87.30
2019-05-22T05:54:41.824Z,87.40
2019-05-22T05:58:32.925Z,88.10
2019-05-22T06:01:46.042Z,88.25
2019-05-22T06:04:52.791Z,87.66
2019-05-22T06:07:58.018Z,86.16
2019-05-22T06:11:39.179Z,86.82
2019-05-22T06:14:45.649Z,88.08
2019-05-22T06:18:27.287Z,88.00
2019-05-22T06:21:33.540Z,87.04
2019-05-22T06:24:59.768Z,87.75
2019-05-22T06:28:06.117Z,88.63
2019-05-22T06:31:17.569Z,87.23
2019-05-22T06:34:23.926Z,87.28
2019-05-22T06:37:36.960Z,87.74
2019-05-22T06:40:43.488Z,88.69
2019-05-22T06:44:25.023Z,88.25
2019-05-22T06:47:30.614Z,87.79
2019-05-22T06:50:36.249Z,88.67
2019-05-22T06:53:41.503Z,88.72
2019-05-22T06:56:46.677Z,86.82
2019-05-22T07:00:11.458Z,86.61
2019-05-22T07:02:59.708Z,87.07
2019-05-22T07:06:05.175Z,86.05
2019-05-22T07:09:10.396Z,85.28
2019-05-22T07:12:19.673Z,86.54
2019-05-22T07:15:43.954Z,86.34
2019-05-22T07:18:49.231Z,86.13
2019-05-22T07:21:54.550Z,86.25
2019-05-22T07:25:00.927Z,85.64
2019-05-22T07:28:07.949Z,84.29
2019-05-22T07:31:13.247Z,86.08
2019-05-22T07:34:19.261Z,85.83
2019-05-22T07:37:26.435Z,85.39
2019-05-22T07:40:32.101Z,84.32
2019-05-22T07:43:41.147Z,85.11
2019-05-22T07:46:44.052Z,85.44
2019-05-22T07:49:50.351Z,85.31
2019-05-22T07:52:56.448Z,83.63
2019-05-22T07:56:04.958Z,82.94
2019-05-22T07:59:11.562Z,82.45
2019-05-22T08:02:17.128Z,82.44
2019-05-22T08:05:25.493Z,80.82
2019-05-22T08:08:33.123Z,80.07
2019-05-22T08:11:38.686Z,79.12
2019-05-22T08:14:44.111Z,78.76
2019-05-22T08:17:49.411Z,78.95
2019-05-22T08:20:54.568Z,78.20
2019-05-22T08:23:59.870Z,78.42
2019-05-22T08:27:07.920Z,76.86
2019-05-22T08:30:13.647Z,77.13
2019-05-22T08:33:20.707Z,73.73
2019-05-22T08:36:26.524Z,71.48
2019-05-22T08:39:31.672Z,70.38
2019-05-22T08:42:37.793Z,69.55
2019-05-22T08:45:43.154Z,71.01
2019-05-22T08:48:49.396Z,70.50
2019-05-22T08:51:55.358Z,72.10
2019-05-22T08:55:01.765Z,72.12
2019-05-22T08:58:08.856Z,68.77
2019-05-22T09:01:15.076Z,68.85
2019-05-22T09:04:20.290Z,70.86
2019-05-22T09:07:26.646Z,70.37
2019-05-22T09:10:34.000Z,69.49
2019-05-22T09:13:39.378Z,70.76
2019-05-22T09:16:46.007Z,69.55
2019-05-22T09:19:51.505Z,72.05
2019-05-22T09:22:56.756Z,72.07
2019-05-22T09:26:02.258Z,72.35
2019-05-22T09:29:07.407Z,71.21
2019-05-22T09:32:12.640Z,69.00
2019-05-22T09:35:19.180Z,66.19
2019-05-22T09:38:25.858Z,64.79
2019-05-22T09:41:32.072Z,64.79
2019-05-22T09:44:37.367Z,63.10
2019-05-22T09:47:42.626Z,63.10
2019-05-22T09:50:47.887Z,67.25
2019-05-22T09:53:53.700Z,70.38
2019-05-22T09:56:58.937Z,72.89
2019-05-22T10:00:05.813Z,69.76
2019-05-22T10:03:11.656Z,68.46
2019-05-22T10:06:16.823Z,65.41
2019-05-22T10:09:22.062Z,64.98
2019-05-22T10:12:27.650Z,62.97
2019-05-22T10:15:34.398Z,64.82
2019-05-22T10:18:39.619Z,61.59
2019-05-22T10:21:45.184Z,60.40
2019-05-22T10:24:51.968Z,57.95
2019-05-22T10:27:59.414Z,58.71
2019-05-22T10:31:06.414Z,58.27
2019-05-22T10:34:12.379Z,58.40
2019-05-22T10:37:18.020Z,57.31
2019-05-22T10:40:24.146Z,59.75
2019-05-22T10:43:30.225Z,61.91
2019-05-22T10:46:35.396Z,62.39
2019-05-22T10:49:40.636Z,62.27
2019-05-22T10:52:46.477Z,62.19
2019-05-22T10:55:51.729Z,62.24
2019-05-22T10:58:57.006Z,62.73
2019-05-22T11:02:02.195Z,61.16
2019-05-22T11:05:07.639Z,61.67
2019-05-22T11:08:13.001Z,60.83
2019-05-22T11:11:18.416Z,59.46
2019-05-22T11:14:24.547Z,57.49
2019-05-22T11:17:30.078Z,57.61
2019-05-22T11:20:35.504Z,56.51
2019-05-22T11:23:51.086Z,56.95
2019-05-22T11:26:48.384Z,56.81
2019-05-22T11:29:53.774Z,58.01
2019-05-22T11:32:59.366Z,57.21
2019-05-22T11:36:05.517Z,59.95
2019-05-22T11:39:14.666Z,59.95
2019-05-22T11:42:20.142Z,60.47
2019-05-22T11:45:25.353Z,59.08
2019-05-22T11:48:30.840Z,56.86
2019-05-22T11:51:36.131Z,57.27
2019-05-22T11:54:41.441Z,59.01
2019-05-22T11:57:47.913Z,59.01
2019-05-22T12:00:53.318Z,58.34
2019-05-22T12:04:00.849Z,62.50
2019-05-22T12:07:07.081Z,61.15
2019-05-22T12:10:14.319Z,61.03
2019-05-22T12:13:20.396Z,60.56
2019-05-22T12:16:27.155Z,62.74
2019-05-22T12:19:32.458Z,63.42
2019-05-22T12:22:38.551Z,63.87
2019-05-22T12:25:43.696Z,64.41
2019-05-22T12:28:49.114Z,65.67
2019-05-22T12:31:54.429Z,63.45
2019-05-22T12:34:59.918Z,63.60
2019-05-22T12:38:06.553Z,61.86
2019-05-22T12:41:15.290Z,59.76
2019-05-22T12:44:21.124Z,58.63
2019-05-22T12:47:27.303Z,58.98
2019-05-22T12:50:33.194Z,59.31
2019-05-22T12:53:39.145Z,59.47
2019-05-22T12:56:45.959Z,59.47
2019-05-22T12:59:51.638Z,59.75
2019-05-22T13:02:58.667Z,57.19
2019-05-22T13:06:05.210Z,59.19
2019-05-22T13:09:12.733Z,57.95
2019-05-22T13:12:18.802Z,60.25
2019-05-22T13:15:25.384Z,59.48
2019-05-22T13:18:31.089Z,57.40
2019-05-22T13:21:39.476Z,56.68
2019-05-22T13:24:45.211Z,59.13
2019-05-22T13:27:52.357Z,57.06
2019-05-22T13:30:58.241Z,56.81
2019-05-22T13:34:04.769Z,57.26
2019-05-22T13:37:11.145Z,61.36
2019-05-22T13:40:27.245Z,59.23
2019-05-22T13:43:26.987Z,59.10
2019-05-22T13:46:32.560Z,59.38
2019-05-22T13:49:39.284Z,59.38
2019-05-22T13:52:44.969Z,61.40
2019-05-22T13:55:51.966Z,62.06
2019-05-22T13:58:57.409Z,59.18
2019-05-22T14:02:02.535Z,62.65
2019-05-22T14:05:08.308Z,62.57
2019-05-22T14:08:13.577Z,62.61
2019-05-22T14:11:19.148Z,63.55
2019-05-22T14:14:24.725Z,64.19
2019-05-22T14:17:29.919Z,63.27
2019-05-22T14:20:35.371Z,61.43
2019-05-22T14:23:40.932Z,62.16
2019-05-22T14:26:46.291Z,62.90
2019-05-22T14:29:51.626Z,62.99
2019-05-22T14:33:03.900Z,62.17
2019-05-22T14:36:07.257Z,60.81
2019-05-22T14:39:14.024Z,60.98
2019-05-22T14:42:19.914Z,60.18
2019-05-22T14:45:25.263Z,58.78
2019-05-22T14:48:30.486Z,57.97
2019-05-22T14:51:35.828Z,57.97
2019-05-22T14:54:41.276Z,54.90
2019-05-22T14:57:47.584Z,57.05
2019-05-22T15:00:54.705Z,56.04
2019-05-22T15:04:01.082Z,55.39
2019-05-22T15:07:07.715Z,54.12
2019-05-22T15:10:17.599Z,55.55
2019-05-22T15:13:23.633Z,59.24
2019-05-22T15:16:29.555Z,54.49
2019-05-22T15:19:35.332Z,55.33
2019-05-22T15:22:40.520Z,57.86
2019-05-22T15:25:45.939Z,56.84
2019-05-22T15:28:51.271Z,58.21
2019-05-22T15:31:56.702Z,57.16
2019-05-22T15:35:02.831Z,57.21
2019-05-22T15:38:10.766Z,54.65
2019-05-22T15:41:16.221Z,55.15
2019-05-22T15:44:22.373Z,52.20
2019-05-22T15:47:28.059Z,53.11
2019-05-22T15:50:35.119Z,51.44
2019-05-22T15:53:41.462Z,53.46
2019-05-22T15:56:48.317Z,55.42
2019-05-22T15:59:53.953Z,56.83
2019-05-22T16:02:59.849Z,54.57
2019-05-22T16:06:07.585Z,55.26
2019-05-22T16:09:16.286Z,54.68
2019-05-22T16:12:21.937Z,53.18
2019-05-22T16:15:28.159Z,54.24
2019-05-22T16:18:36.109Z,54.01
2019-05-22T16:21:46.902Z,52.56
2019-05-22T16:24:52.084Z,54.38
2019-05-22T16:27:57.212Z,54.37
2019-05-22T16:31:03.885Z,53.95
2019-05-22T16:34:09.155Z,51.71
2019-05-22T16:37:15.494Z,50.71
2019-05-22T16:40:22.122Z,51.06
2019-05-22T16:43:47.398Z,50.23
2019-05-22T16:46:36.292Z,49.52
2019-05-22T16:49:42.302Z,49.06
2019-05-22T16:52:47.567Z,47.33
2019-05-22T16:55:53.869Z,46.43
2019-05-22T16:58:59.397Z,46.50
2019-05-22T17:02:07.880Z,48.56
2019-05-22T17:05:15.121Z,44.62
2019-05-22T17:08:21.957Z,45.85
2019-05-22T17:11:28.837Z,44.53
2019-05-22T17:14:34.491Z,44.96
2019-05-22T17:17:39.646Z,44.67
2019-05-22T17:20:46.292Z,44.33
2019-05-22T17:23:51.968Z,44.90
2019-05-22T17:26:57.329Z,44.46
2019-05-22T17:30:03.488Z,45.19
2019-05-22T17:33:09.924Z,44.72
2019-05-22T17:36:16.598Z,49.41
2019-05-22T17:39:22.776Z,51.62
2019-05-22T17:42:29.142Z,54.42
2019-05-22T17:45:34.595Z,54.42
2019-05-22T17:48:41.358Z,54.54
2019-05-22T17:51:46.567Z,54.54
2019-05-22T17:54:53.020Z,54.58
2019-05-22T17:57:59.588Z,56.98
2019-05-22T18:01:08.346Z,56.91
2019-05-22T18:04:13.599Z,56.42
2019-05-22T18:07:19.741Z,59.61
2019-05-22T18:10:25.853Z,62.28
2019-05-22T18:13:32.114Z,65.53
2019-05-22T18:16:37.934Z,67.48
2019-05-22T18:19:43.311Z,67.67
2019-05-22T18:22:48.849Z,70.57
2019-05-22T18:25:54.212Z,72.43
2019-05-22T18:28:59.575Z,73.50
2019-05-22T18:32:06.702Z,75.20
2019-05-22T18:35:13.366Z,75.96
2019-05-22T18:38:18.553Z,76.85
2019-05-22T18:41:23.666Z,76.11
2019-05-22T18:44:28.870Z,77.04
2019-05-22T18:47:34.581Z,77.22
2019-05-22T18:50:39.930Z,77.53
2019-05-22T18:53:45.875Z,75.41
2019-05-22T18:56:51.121Z,75.06
2019-05-22T19:00:02.686Z,76.31
2019-05-22T19:03:04.218Z,76.66
2019-05-22T19:06:09.924Z,77.62
2019-05-22T19:09:16.871Z,78.86
2019-05-22T19:12:22.081Z,77.84
2019-05-22T19:15:27.449Z,78.40
2019-05-22T19:18:32.600Z,81.05
2019-05-22T19:21:37.875Z,82.59
2019-05-22T19:24:43.154Z,83.63
2019-05-22T19:27:48.507Z,85.97
2019-05-22T19:30:53.856Z,86.72
2019-05-22T19:33:59.435Z,86.05
2019-05-22T19:37:04.801Z,87.83
2019-05-22T19:40:12.514Z,88.85
2019-05-22T19:43:17.712Z,90.24
2019-05-22T19:46:23.118Z,89.36
2019-05-22T19:49:29.536Z,89.64
2019-05-22T19:52:41.478Z,90.22
2019-05-22T19:55:46.670Z,91.42
2019-05-22T19:58:52.084Z,92.00
2019-05-22T20:01:57.780Z,92.13
2019-05-22T20:05:04.137Z,92.51
2019-05-22T20:08:12.425Z,92.52
2019-05-22T20:11:17.992Z,92.84
2019-05-22T20:14:23.959Z,93.59
2019-05-22T20:17:29.306Z,94.22
2019-05-22T20:20:34.706Z,94.77
2019-05-22T20:23:40.089Z,95.46
2019-05-22T20:26:45.212Z,96.42
2019-05-22T20:29:51.175Z,96.42
2019-05-22T20:32:57.335Z,96.76
2019-05-22T20:36:03.142Z,97.23
2019-05-22T20:39:11.710Z,96.90
2019-05-22T20:42:16.952Z,96.60
2019-05-22T20:45:25.553Z,95.94
2019-05-22T20:48:30.890Z,95.64
2019-05-22T20:51:36.057Z,95.86
2019-05-22T20:54:43.429Z,96.36
2019-05-22T20:57:49.277Z,97.22
2019-05-22T21:00:54.744Z,98.14
2019-05-22T21:04:04.046Z,98.68
2019-05-22T21:07:10.183Z,98.96
2019-05-22T21:10:15.430Z,99.61
2019-05-22T21:13:20.724Z,99.73
2019-05-22T21:16:26.319Z,100.00
2019-05-22T21:19:32.420Z,100.00
2019-05-22T21:22:38.576Z,100.00
2019-05-22T21:25:44.163Z,100.00
2019-05-22T21:28:49.616Z,100.00
2019-05-22T21:31:55.247Z,100.00
2019-05-22T21:35:00.819Z,100.00
2019-05-22T21:38:06.225Z,100.00
2019-05-22T21:41:11.443Z,100.00
2019-05-22T21:44:16.700Z,100.00
2019-05-22T21:47:22.866Z,100.00
2019-05-22T21:50:31.858Z,100.00
2019-05-22T21:53:37.138Z,100.00
2019-05-22T21:56:44.512Z,100.00
2019-05-22T21:59:49.936Z,100.00
2019-05-22T22:02:57.155Z,100.00
2019-05-22T22:06:02.705Z,100.00
2019-05-22T22:09:08.882Z,100.00
2019-05-22T22:12:17.103Z,100.00
2019-05-22T22:15:22.462Z,100.00
2019-05-22T22:18:27.780Z,100.00
2019-05-22T22:21:33.404Z,100.00
2019-05-22T22:24:38.647Z,100.00
2019-05-22T22:27:44.469Z,100.00
2019-05-22T22:30:54.622Z,100.00
2019-05-22T22:34:06.104Z,100.00
2019-05-22T22:37:12.077Z,100.00
2019-05-22T22:40:18.922Z,100.00
2019-05-22T22:43:27.842Z,100.00
2019-05-22T22:46:43.543Z,100.00
2019-05-22T22:49:49.050Z,100.00
2019-05-22T22:52:55.442Z,100.00
2019-05-22T22:56:01.558Z,100.00
2019-05-22T22:59:07.939Z,100.00
2019-05-22T23:02:16.752Z,100.00
2019-05-22T23:05:22.257Z,100.00
2019-05-22T23:08:30.737Z,100.00
2019-05-22T23:11:38.605Z,100.00
2019-05-22T23:14:48.426Z,100.00
2019-05-22T23:17:53.849Z,100.00
2019-05-22T23:20:57.295Z,100.00
2019-05-22T23:24:03.400Z,100.00
2019-05-22T23:27:10.573Z,100.00
2019-05-22T23:30:18.597Z,100.00
2019-05-22T23:33:23.853Z,100.00
2019-05-22T23:36:29.936Z,100.00
2019-05-22T23:39:36.108Z,100.00
2019-05-22T23:42:44.093Z,100.00
2019-05-22T23:45:50.968Z,100.00
2019-05-22T23:48:56.461Z,100.00
2019-05-22T23:52:02.342Z,100.00
2019-05-22T23:55:09.804Z,100.00
2019-05-22T23:58:16.603Z,100.00
